Time;durP1;ratioP1;P1;durP2;ratioP2;P2;SDS_P1;SDS_P2;PMS_P1;PMS_P2;Temp;Humidity;BMP_temperature;BMP_pressure;BME280_temperature;BME280_humidity;BME280_pressure;Samples;Min_cycle;Max_cycle;Signal;HPM_P1;HPM_P2
2021/08/20 00:02:10;;;;;;;5.05;3.70;;;;;;;;;;5075887;28;20029;-73
2021/08/20 00:04:36;;;;;;;12.40;3.45;;;;;;;;;;5075720;28;20070;-72
2021/08/20 00:07:02;;;;;;;12.85;3.67;;;;;;;;;;5075767;28;20125;-72
2021/08/20 00:09:28;;;;;;;7.00;4.00;;;;;;;;;;5075611;28;20223;-74
2021/08/20 00:11:54;;;;;;;12.32;3.83;;;;;;;;;;5075824;28;20119;-73
2021/08/20 00:14:20;;;;;;;7.50;3.50;;;;;;;;;;5075822;28;20491;-72
2021/08/20 00:16:46;;;;;;;5.45;3.53;;;;;;;;;;5075278;28;20067;-75
2021/08/20 00:19:12;;;;;;;9.30;3.17;;;;;;;;;;5075573;28;20032;-73
2021/08/20 00:21:45;;;;;;;6.60;3.42;;;;;;;;;;5075356;28;20476;-74
2021/08/20 00:24:14;;;;;;;9.00;3.00;;;;;;;;;;5074787;28;20041;-73
2021/08/20 00:26:41;;;;;;;3.80;3.08;;;;;;;;;;5075133;28;20101;-74
2021/08/20 00:29:07;;;;;;;7.05;3.33;;;;;;;;;;5075444;28;20028;-74
2021/08/20 00:31:33;;;;;;;5.22;3.17;;;;;;;;;;5075502;28;20023;-74
2021/08/20 00:33:59;;;;;;;8.13;3.30;;;;;;;;;;5075139;28;20078;-73
2021/08/20 00:36:25;;;;;;;8.05;3.03;;;;;;;;;;5057171;28;20466;-72
2021/08/20 00:38:51;;;;;;;5.78;3.30;;;;;;;;;;5075185;28;20543;-73
2021/08/20 00:41:17;;;;;;;6.00;3.08;;;;;;;;;;5075106;28;20029;-72
2021/08/20 00:43:44;;;;;;;8.88;3.47;;;;;;;;;;5074626;28;20468;-72
2021/08/20 00:46:10;;;;;;;4.03;2.80;;;;;;;;;;5056786;28;20028;-73
2021/08/20 00:48:36;;;;;;;5.53;3.08;;;;;;;;;;5074891;28;20052;-73
2021/08/20 00:51:04;;;;;;;3.47;2.83;;;;;;;;;;5075091;28;20063;-72
2021/08/20 00:53:31;;;;;;;5.03;3.03;;;;;;;;;;5074887;28;20081;-73
2021/08/20 00:55:59;;;;;;;15.73;3.30;;;;;;;;;;5075148;28;20032;-73
2021/08/20 00:58:25;;;;;;;9.32;3.10;;;;;;;;;;5074470;28;20539;-73
2021/08/20 01:00:51;;;;;;;4.38;3.10;;;;;;;;;;5074719;28;20052;-72
2021/08/20 01:03:17;;;;;;;4.13;3.00;;;;;;;;;;5074578;28;20403;-73
2021/08/20 01:05:43;;;;;;;9.13;3.00;;;;;;;;;;5074458;28;20024;-73
2021/08/20 01:08:09;;;;;;;6.80;2.88;;;;;;;;;;5074560;28;20098;-72
2021/08/20 01:10:35;;;;;;;6.15;2.95;;;;;;;;;;5074960;28;20016;-73
2021/08/20 01:13:02;;;;;;;4.50;2.70;;;;;;;;;;5074630;28;20047;-74
2021/08/20 01:15:28;;;;;;;11.27;3.33;;;;;;;;;;5074203;28;20076;-74
2021/08/20 01:17:54;;;;;;;6.68;2.83;;;;;;;;;;5074332;28;20093;-74
2021/08/20 01:20:20;;;;;;;5.68;3.10;;;;;;;;;;5074188;28;20056;-75
2021/08/20 01:22:46;;;;;;;2.92;2.42;;;;;;;;;;5056443;28;20025;-75
2021/08/20 01:25:12;;;;;;;6.70;2.78;;;;;;;;;;5056279;28;20025;-73
2021/08/20 01:27:38;;;;;;;7.30;3.05;;;;;;;;;;5074060;28;20021;-73
2021/08/20 01:30:05;;;;;;;8.95;2.60;;;;;;;;;;5073976;28;20024;-73
2021/08/20 01:32:31;;;;;;;11.02;3.38;;;;;;;;;;5074760;28;20023;-74
2021/08/20 01:34:57;;;;;;;4.95;2.55;;;;;;;;;;5073876;28;20034;-75
2021/08/20 01:37:24;;;;;;;6.57;2.60;;;;;;;;;;5056124;28;20387;-72
2021/08/20 01:39:50;;;;;;;5.38;2.65;;;;;;;;;;5073889;28;20021;-74
2021/08/20 01:42:16;;;;;;;4.45;2.63;;;;;;;;;;5073860;28;20020;-73
2021/08/20 01:44:42;;;;;;;8.07;2.50;;;;;;;;;;5073926;28;20533;-72
2021/08/20 01:47:12;;;;;;;3.75;2.53;;;;;;;;;;5073821;28;20525;-73
2021/08/20 01:49:39;;;;;;;6.55;2.88;;;;;;;;;;5073630;28;20436;-73
2021/08/20 01:52:05;;;;;;;5.22;2.67;;;;;;;;;;5073939;28;20082;-74
2021/08/20 01:54:31;;;;;;;8.70;2.78;;;;;;;;;;5055810;28;20063;-73
2021/08/20 01:56:57;;;;;;;7.65;2.92;;;;;;;;;;5073348;28;20070;-73
2021/08/20 01:59:23;;;;;;;21.13;2.70;;;;;;;;;;5072858;28;20028;-73
2021/08/20 02:01:49;;;;;;;12.70;2.45;;;;;;;;;;5055645;28;20035;-73
2021/08/20 02:04:15;;;;;;;11.05;2.80;;;;;;;;;;5073889;28;20027;-74
2021/08/20 02:06:41;;;;;;;4.55;2.30;;;;;;;;;;5073777;28;20024;-74
2021/08/20 02:09:07;;;;;;;6.82;2.42;;;;;;;;;;5073859;28;20028;-74
2021/08/20 02:11:34;;;;;;;5.88;2.63;;;;;;;;;;5073383;28;20025;-73
2021/08/20 02:14:00;;;;;;;3.58;2.22;;;;;;;;;;5055428;28;20353;-74
2021/08/20 02:16:26;;;;;;;13.80;3.08;;;;;;;;;;5073132;28;20051;-73
2021/08/20 02:18:53;;;;;;;6.18;2.38;;;;;;;;;;5073413;28;20140;-73
2021/08/20 02:21:19;;;;;;;10.02;2.55;;;;;;;;;;5073301;28;20048;-74
2021/08/20 02:23:45;;;;;;;18.83;2.38;;;;;;;;;;5073347;28;20056;-74
2021/08/20 02:26:11;;;;;;;16.83;2.58;;;;;;;;;;5073146;28;20060;-73
2021/08/20 02:28:37;;;;;;;6.68;2.47;;;;;;;;;;5073345;28;20058;-72
2021/08/20 02:31:03;;;;;;;9.85;2.50;;;;;;;;;;5073162;28;20357;-71
2021/08/20 02:33:29;;;;;;;8.98;2.50;;;;;;;;;;5073236;28;20104;-72
2021/08/20 02:35:55;;;;;;;5.22;2.42;;;;;;;;;;5073136;28;20368;-72
2021/08/20 02:38:21;;;;;;;7.50;2.42;;;;;;;;;;5055215;28;20028;-75
2021/08/20 02:40:47;;;;;;;7.28;2.75;;;;;;;;;;5073063;28;20517;-75
2021/08/20 02:43:13;;;;;;;8.05;2.35;;;;;;;;;;5073185;28;20025;-73
2021/08/20 02:45:39;;;;;;;7.60;2.58;;;;;;;;;;5055350;28;20056;-73
2021/08/20 02:48:05;;;;;;;7.13;2.58;;;;;;;;;;5055232;28;20356;-72
2021/08/20 02:50:31;;;;;;;4.88;2.42;;;;;;;;;;5072883;28;20387;-72
2021/08/20 02:52:57;;;;;;;5.03;2.45;;;;;;;;;;5073161;28;20516;-73
2021/08/20 02:55:23;;;;;;;10.70;2.63;;;;;;;;;;5072978;28;20051;-72
2021/08/20 02:57:49;;;;;;;4.40;2.40;;;;;;;;;;5072787;28;20032;-72
2021/08/20 03:00:15;;;;;;;3.63;2.03;;;;;;;;;;5073008;28;20024;-72
2021/08/20 03:02:41;;;;;;;6.57;2.38;;;;;;;;;;5073379;28;20029;-72
2021/08/20 03:05:07;;;;;;;9.88;2.00;;;;;;;;;;5072820;28;20033;-73
2021/08/20 03:07:33;;;;;;;9.55;2.67;;;;;;;;;;5072874;28;20052;-72
2021/08/20 03:09:59;;;;;;;4.47;2.33;;;;;;;;;;5075702;28;20059;-72
2021/08/20 03:12:25;;;;;;;5.18;1.92;;;;;;;;;;5076679;28;20032;-73
2021/08/20 03:14:52;;;;;;;6.47;2.17;;;;;;;;;;5076670;28;20060;-72
2021/08/20 03:17:18;;;;;;;2.50;2.17;;;;;;;;;;5076559;28;20396;-73
2021/08/20 03:19:44;;;;;;;2.80;2.03;;;;;;;;;;5076711;28;20020;-72
2021/08/20 03:22:10;;;;;;;3.35;2.20;;;;;;;;;;5076420;28;20031;-72
2021/08/20 03:24:36;;;;;;;4.13;2.13;;;;;;;;;;5058590;28;20025;-71
2021/08/20 03:27:02;;;;;;;6.32;2.08;;;;;;;;;;5076610;28;20089;-73
2021/08/20 03:29:28;;;;;;;4.18;2.22;;;;;;;;;;5076408;28;20099;-73
2021/08/20 03:31:54;;;;;;;9.15;2.20;;;;;;;;;;5058317;28;20071;-73
2021/08/20 03:34:20;;;;;;;4.57;2.10;;;;;;;;;;5058515;28;20021;-73
2021/08/20 03:36:46;;;;;;;3.33;2.00;;;;;;;;;;5076117;28;20041;-73
2021/08/20 03:39:12;;;;;;;5.88;2.10;;;;;;;;;;5076290;28;20052;-72
2021/08/20 03:41:38;;;;;;;10.57;2.13;;;;;;;;;;5058346;28;20024;-73
2021/08/20 03:44:04;;;;;;;8.35;2.25;;;;;;;;;;5076126;28;20032;-71
2021/08/20 03:46:30;;;;;;;5.35;2.40;;;;;;;;;;5076208;28;20118;-74
2021/08/20 03:48:56;;;;;;;6.05;2.03;;;;;;;;;;5076621;28;20364;-73
2021/08/20 03:51:22;;;;;;;4.82;2.25;;;;;;;;;;5076134;28;20103;-72
2021/08/20 03:53:48;;;;;;;19.95;2.70;;;;;;;;;;5075840;28;20044;-73
2021/08/20 03:56:14;;;;;;;6.40;2.13;;;;;;;;;;5075840;28;20365;-73
2021/08/20 03:58:40;;;;;;;4.47;2.15;;;;;;;;;;5075863;28;20078;-73
2021/08/20 04:01:07;;;;;;;7.78;2.22;;;;;;;;;;5075931;28;20017;-71
2021/08/20 04:03:33;;;;;;;20.73;2.45;;;;;;;;;;5057799;28;20116;-73
2021/08/20 04:05:59;;;;;;;4.35;2.03;;;;;;;;;;5076133;28;20032;-75
2021/08/20 04:08:24;;;;;;;12.23;2.40;;;;;;;;;;5057567;28;20025;-71
2021/08/20 04:10:50;;;;;;;33.92;3.25;;;;;;;;;;5075715;28;20028;-74
2021/08/20 04:13:17;;;;;;;17.48;2.38;;;;;;;;;;5075595;28;20028;-74
2021/08/20 04:15:43;;;;;;;17.33;2.40;;;;;;;;;;5075388;28;20059;-73
2021/08/20 04:18:09;;;;;;;12.82;2.28;;;;;;;;;;5075408;28;20028;-73
2021/08/20 04:20:36;;;;;;;11.32;2.35;;;;;;;;;;5074807;28;20024;-73
2021/08/20 04:23:02;;;;;;;12.75;2.60;;;;;;;;;;5075396;28;20025;-77
2021/08/20 04:25:28;;;;;;;11.05;2.47;;;;;;;;;;5075726;28;20033;-76
2021/08/20 04:27:54;;;;;;;5.32;2.15;;;;;;;;;;5075704;28;20040;-73
2021/08/20 04:30:22;;;;;;;4.35;1.73;;;;;;;;;;5075547;28;20027;-76
2021/08/20 04:32:48;;;;;;;17.67;2.22;;;;;;;;;;5075179;28;20446;-75
2021/08/20 04:35:14;;;;;;;12.63;1.90;;;;;;;;;;5075358;28;20024;-72
2021/08/20 04:37:40;;;;;;;14.35;2.13;;;;;;;;;;5075083;28;20111;-73
2021/08/20 04:40:08;;;;;;;17.92;2.83;;;;;;;;;;5075002;28;20096;-73
2021/08/20 04:42:38;;;;;;;14.20;2.65;;;;;;;;;;5057044;28;20028;-74
2021/08/20 04:45:05;;;;;;;14.48;2.13;;;;;;;;;;5075199;28;20020;-74
2021/08/20 04:47:31;;;;;;;12.40;2.00;;;;;;;;;;5074994;28;20530;-75
2021/08/20 04:49:57;;;;;;;12.80;2.05;;;;;;;;;;5075002;28;20472;-75
2021/08/20 04:52:23;;;;;;;11.85;2.17;;;;;;;;;;5074846;28;20529;-75
2021/08/20 04:54:49;;;;;;;11.05;2.08;;;;;;;;;;5074808;28;20081;-75
2021/08/20 04:57:15;;;;;;;40.45;2.60;;;;;;;;;;5056655;28;20059;-76
2021/08/20 04:59:40;;;;;;;38.30;2.58;;;;;;;;;;5074922;28;20071;-76
2021/08/20 05:02:07;;;;;;;25.20;2.63;;;;;;;;;;5074854;28;20024;-76
2021/08/20 05:04:34;;;;;;;10.43;2.55;;;;;;;;;;5074533;28;20025;-76
2021/08/20 05:07:00;;;;;;;36.42;3.33;;;;;;;;;;5074897;28;20027;-74
2021/08/20 05:09:27;;;;;;;23.88;3.58;;;;;;;;;;5074634;28;20486;-72
2021/08/20 05:11:53;;;;;;;34.38;3.60;;;;;;;;;;5074327;28;20111;-74
2021/08/20 05:14:19;;;;;;;25.33;3.90;;;;;;;;;;5056402;28;20048;-73
2021/08/20 05:16:48;;;;;;;26.63;4.75;;;;;;;;;;5056400;28;20052;-72
2021/08/20 05:19:14;;;;;;;20.45;4.13;;;;;;;;;;5056635;28;20451;-75
2021/08/20 05:21:40;;;;;;;16.20;3.80;;;;;;;;;;5056530;28;20024;-74
2021/08/20 05:24:05;;;;;;;14.77;4.30;;;;;;;;;;5074556;28;20536;-73
2021/08/20 05:26:31;;;;;;;29.88;5.10;;;;;;;;;;5074021;28;20082;-75
2021/08/20 05:28:57;;;;;;;25.83;4.07;;;;;;;;;;5073814;28;20033;-67
2021/08/20 05:31:23;;;;;;;25.02;4.82;;;;;;;;;;5074188;28;20031;-72
2021/08/20 05:33:49;;;;;;;23.20;4.15;;;;;;;;;;5072933;28;20024;-74
2021/08/20 05:36:15;;;;;;;18.33;4.22;;;;;;;;;;5073931;28;20032;-73
2021/08/20 05:38:41;;;;;;;55.97;4.22;;;;;;;;;;5073679;28;20017;-74
2021/08/20 05:41:07;;;;;;;53.95;4.95;;;;;;;;;;5073931;28;20020;-76
2021/08/20 05:43:33;;;;;;;42.05;3.85;;;;;;;;;;5056043;28;20128;-75
2021/08/20 05:46:00;;;;;;;34.63;3.72;;;;;;;;;;5073195;28;20021;-65
2021/08/20 05:48:26;;;;;;;44.50;4.15;;;;;;;;;;5073106;28;20503;-65
2021/08/20 05:50:52;;;;;;;36.47;3.88;;;;;;;;;;5072841;28;20027;-65
2021/08/20 05:53:18;;;;;;;20.88;3.72;;;;;;;;;;5073425;28;20398;-65
2021/08/20 05:55:44;;;;;;;28.88;3.85;;;;;;;;;;5073037;28;20048;-65
2021/08/20 05:58:10;;;;;;;20.38;3.63;;;;;;;;;;5054844;28;20037;-70
2021/08/20 06:00:36;;;;;;;17.05;4.00;;;;;;;;;;5055194;28;20020;-65
2021/08/20 06:03:02;;;;;;;11.50;3.63;;;;;;;;;;5054971;28;20020;-65
2021/08/20 06:05:28;;;;;;;21.55;3.75;;;;;;;;;;5073096;28;20107;-69
2021/08/20 06:07:54;;;;;;;27.88;3.95;;;;;;;;;;5073574;28;20103;-69
2021/08/20 06:10:20;;;;;;;12.63;3.42;;;;;;;;;;5055788;28;20115;-74
2021/08/20 06:12:46;;;;;;;10.57;2.97;;;;;;;;;;5073405;28;20052;-76
2021/08/20 06:15:12;;;;;;;9.80;3.55;;;;;;;;;;5055323;28;20052;-72
2021/08/20 06:17:38;;;;;;;13.23;3.88;;;;;;;;;;5073328;28;20029;-65
2021/08/20 06:20:05;;;;;;;9.40;3.17;;;;;;;;;;5073142;28;20043;-64
2021/08/20 06:22:31;;;;;;;13.68;3.17;;;;;;;;;;5073213;28;20039;-71
2021/08/20 06:24:57;;;;;;;15.27;3.83;;;;;;;;;;5073088;28;20028;-70
2021/08/20 06:27:23;;;;;;;15.27;4.00;;;;;;;;;;5073020;28;20052;-70
2021/08/20 06:29:49;;;;;;;9.23;3.22;;;;;;;;;;5072977;28;20025;-74
2021/08/20 06:32:15;;;;;;;10.38;3.28;;;;;;;;;;5073068;28;20051;-76
2021/08/20 06:34:41;;;;;;;10.60;3.40;;;;;;;;;;5073347;28;20027;-75
2021/08/20 06:37:07;;;;;;;11.18;4.03;;;;;;;;;;5073048;28;20402;-74
2021/08/20 06:39:33;;;;;;;14.18;3.28;;;;;;;;;;5073120;28;20028;-73
2021/08/20 06:42:02;;;;;;;9.20;3.25;;;;;;;;;;5073266;28;20032;-71
2021/08/20 06:44:29;;;;;;;26.52;3.63;;;;;;;;;;5074839;28;20150;-74
2021/08/20 06:46:55;;;;;;;5.57;2.97;;;;;;;;;;5077566;28;20081;-74
2021/08/20 06:49:21;;;;;;;8.18;3.08;;;;;;;;;;5077270;28;20103;-74
2021/08/20 06:51:47;;;;;;;9.60;3.10;;;;;;;;;;5077576;28;20020;-75
2021/08/20 06:54:12;;;;;;;8.52;2.70;;;;;;;;;;5076954;28;20503;-76
2021/08/20 06:56:38;;;;;;;7.60;2.60;;;;;;;;;;5076951;28;20124;-73
2021/08/20 06:59:05;;;;;;;10.50;2.80;;;;;;;;;;5076979;28;20020;-75
2021/08/20 07:01:31;;;;;;;7.90;2.60;;;;;;;;;;5077246;28;20025;-75
2021/08/20 07:03:58;;;;;;;6.65;2.70;;;;;;;;;;5058696;28;20043;-75
2021/08/20 07:06:25;;;;;;;5.20;2.50;;;;;;;;;;5077285;28;20360;-71
2021/08/20 07:08:52;;;;;;;12.45;2.90;;;;;;;;;;5076998;28;20055;-75
2021/08/20 07:11:19;;;;;;;5.10;2.00;;;;;;;;;;5076652;28;20075;-74
2021/08/20 07:13:45;;;;;;;5.63;2.20;;;;;;;;;;5076817;28;20082;-74
2021/08/20 07:16:11;;;;;;;6.43;2.50;;;;;;;;;;5076640;28;20044;-75
2021/08/20 07:18:37;;;;;;;8.45;2.53;;;;;;;;;;5058427;28;20036;-75
2021/08/20 07:21:03;;;;;;;7.30;2.45;;;;;;;;;;5076796;28;20259;-75
2021/08/20 07:23:29;;;;;;;4.88;2.10;;;;;;;;;;5076766;28;20035;-75
2021/08/20 07:25:55;;;;;;;7.65;2.45;;;;;;;;;;5076262;28;20036;-76
2021/08/20 07:28:21;;;;;;;5.90;2.30;;;;;;;;;;5059531;28;20025;-77
2021/08/20 07:30:47;;;;;;;5.00;2.22;;;;;;;;;;5078425;28;20435;-78
2021/08/20 07:33:13;;;;;;;6.45;2.40;;;;;;;;;;5079413;28;20041;-76
2021/08/20 07:35:39;;;;;;;18.40;2.38;;;;;;;;;;5079451;28;20052;-78
2021/08/20 07:38:05;;;;;;;5.85;2.22;;;;;;;;;;5080648;28;20755;-78
2021/08/20 07:40:31;;;;;;;8.13;2.50;;;;;;;;;;5080091;28;20024;-78
2021/08/20 07:42:57;;;;;;;8.25;2.72;;;;;;;;;;5079592;28;20130;-78
2021/08/20 07:45:23;;;;;;;12.25;2.47;;;;;;;;;;5079280;28;20059;-78
2021/08/20 07:47:50;;;;;;;8.70;2.42;;;;;;;;;;5077213;28;20361;-77
2021/08/20 07:50:17;;;;;;;8.82;2.30;;;;;;;;;;5076560;28;20028;-76
2021/08/20 07:52:44;;;;;;;12.68;3.03;;;;;;;;;;5076824;28;20037;-78
2021/08/20 07:55:10;;;;;;;8.68;2.90;;;;;;;;;;5076711;28;20099;-78
2021/08/20 07:57:50;;;;;;;5.93;2.35;;;;;;;;;;5059501;28;20463;-76
2021/08/20 08:00:19;;;;;;;8.10;2.70;;;;;;;;;;5075800;28;20100;-76
2021/08/20 08:02:45;;;;;;;6.45;2.40;;;;;;;;;;5075904;28;20029;-75
2021/08/20 08:05:11;;;;;;;11.02;2.47;;;;;;;;;;5075907;28;20464;-76
2021/08/20 08:07:37;;;;;;;10.90;2.40;;;;;;;;;;5057865;28;20024;-76
2021/08/20 08:10:04;;;;;;;11.52;2.60;;;;;;;;;;5075867;28;20021;-78
2021/08/20 08:12:29;;;;;;;4.95;2.10;;;;;;;;;;5057742;28;20024;-78
2021/08/20 08:14:55;;;;;;;7.25;2.65;;;;;;;;;;5075294;28;20047;-78
2021/08/20 08:17:21;;;;;;;6.63;2.53;;;;;;;;;;5075686;28;20116;-78
2021/08/20 08:19:47;;;;;;;8.20;1.80;;;;;;;;;;5075659;28;20070;-78
2021/08/20 08:22:13;;;;;;;7.20;2.35;;;;;;;;;;5059774;28;20029;-78
2021/08/20 08:24:39;;;;;;;7.25;2.10;;;;;;;;;;5078259;28;20117;-75
2021/08/20 08:27:05;;;;;;;5.28;1.98;;;;;;;;;;5076847;28;20034;-77
2021/08/20 08:29:31;;;;;;;5.43;2.00;;;;;;;;;;5079165;28;20485;-78
2021/08/20 08:31:57;;;;;;;7.32;2.50;;;;;;;;;;5078512;28;20103;-77
2021/08/20 08:34:23;;;;;;;5.38;2.47;;;;;;;;;;5079170;28;20032;-76
2021/08/20 08:36:49;;;;;;;5.75;2.20;;;;;;;;;;5075798;28;20029;-78
2021/08/20 08:39:15;;;;;;;5.65;2.38;;;;;;;;;;5075054;28;20528;-78
2021/08/20 08:41:41;;;;;;;4.18;1.98;;;;;;;;;;5076245;28;20063;-78
2021/08/20 08:44:07;;;;;;;4.47;1.92;;;;;;;;;;5075054;28;20040;-78
2021/08/20 08:46:37;;;;;;;10.38;2.50;;;;;;;;;;5075125;28;20154;-76
2021/08/20 08:49:04;;;;;;;7.35;2.00;;;;;;;;;;5075015;28;20027;-77
2021/08/20 08:51:30;;;;;;;4.57;1.90;;;;;;;;;;5074897;28;20070;-78
2021/08/20 08:53:56;;;;;;;4.10;1.83;;;;;;;;;;5074697;28;20539;-78
2021/08/20 08:56:22;;;;;;;6.78;2.22;;;;;;;;;;5074583;28;20075;-78
2021/08/20 08:58:48;;;;;;;4.75;1.70;;;;;;;;;;5056721;28;20029;-78
2021/08/20 09:01:27;;;;;;;6.00;1.70;;;;;;;;;;5075423;28;20047;-79
2021/08/20 09:04:12;;;;;;;6.18;1.90;;;;;;;;;;5076038;28;20025;-76
2021/08/20 09:06:39;;;;;;;7.65;1.90;;;;;;;;;;5075386;28;20032;-78
2021/08/20 09:09:06;;;;;;;6.22;2.00;;;;;;;;;;5075516;28;20029;-79
2021/08/20 09:11:32;;;;;;;5.68;1.80;;;;;;;;;;5057441;28;20471;-79
2021/08/20 09:13:58;;;;;;;4.07;1.90;;;;;;;;;;5075480;28;20514;-79
2021/08/20 09:16:33;;;;;;;6.47;1.75;;;;;;;;;;5074723;28;20052;-73
2021/08/20 09:19:12;;;;;;;5.93;2.05;;;;;;;;;;5056551;28;20028;-80
2021/08/20 09:21:38;;;;;;;8.18;1.83;;;;;;;;;;5074812;28;20032;-78
2021/08/20 09:24:24;;;;;;;5.18;1.92;;;;;;;;;;5076441;28;20031;-79
2021/08/20 09:26:50;;;;;;;4.75;1.90;;;;;;;;;;5076727;28;20024;-80
2021/08/20 09:29:23;;;;;;;7.53;1.80;;;;;;;;;;5077066;28;20028;-80
2021/08/20 09:31:51;;;;;;;6.40;1.92;;;;;;;;;;5058445;28;20028;-79
2021/08/20 09:34:17;;;;;;;6.93;1.90;;;;;;;;;;5076347;28;20056;-79
2021/08/20 09:36:42;;;;;;;7.38;1.63;;;;;;;;;;5075980;28;20063;-80
2021/08/20 09:39:08;;;;;;;3.50;1.55;;;;;;;;;;5073596;28;20064;-64
2021/08/20 09:41:37;;;;;;;6.45;1.70;;;;;;;;;;5073539;28;20066;-65
2021/08/20 09:44:06;;;;;;;6.35;1.60;;;;;;;;;;5073803;28;20060;-65
2021/08/20 09:46:46;;;;;;;5.05;1.75;;;;;;;;;;5055543;28;20029;-65
2021/08/20 09:49:14;;;;;;;5.60;1.60;;;;;;;;;;5073515;28;20416;-65
2021/08/20 09:51:40;;;;;;;2.63;1.35;;;;;;;;;;5073526;28;20059;-68
2021/08/20 09:54:06;;;;;;;5.32;1.77;;;;;;;;;;5073373;28;20025;-64
2021/08/20 09:56:32;;;;;;;5.85;1.50;;;;;;;;;;5073182;28;20078;-65
2021/08/20 09:58:59;;;;;;;6.38;2.03;;;;;;;;;;5073139;28;20074;-68
2021/08/20 10:01:27;;;;;;;4.03;1.50;;;;;;;;;;5073215;28;20028;-66
2021/08/20 10:03:54;;;;;;;4.43;1.48;;;;;;;;;;5073155;28;20025;-65
2021/08/20 10:06:21;;;;;;;4.35;1.77;;;;;;;;;;5055014;28;20032;-69
2021/08/20 10:08:47;;;;;;;7.05;1.77;;;;;;;;;;5072958;28;20539;-65
2021/08/20 10:11:15;;;;;;;8.23;1.70;;;;;;;;;;5072888;28;20033;-65
2021/08/20 10:13:43;;;;;;;6.43;1.90;;;;;;;;;;5072797;28;20032;-65
2021/08/20 10:16:09;;;;;;;7.07;1.48;;;;;;;;;;5060783;28;20435;-67
2021/08/20 10:18:37;;;;;;;3.58;1.30;;;;;;;;;;5052616;28;20049;-67
2021/08/20 10:21:03;;;;;;;4.65;1.48;;;;;;;;;;5053134;28;20043;-65
2021/08/20 10:23:32;;;;;;;3.15;1.33;;;;;;;;;;5053057;28;20089;-64
2021/08/20 10:25:58;;;;;;;5.25;1.70;;;;;;;;;;5052672;28;20377;-64
2021/08/20 10:28:25;;;;;;;4.75;1.52;;;;;;;;;;5053264;28;20029;-69
2021/08/20 10:30:51;;;;;;;6.32;1.80;;;;;;;;;;5052751;28;20156;-65
2021/08/20 10:33:29;;;;;;;6.65;2.10;;;;;;;;;;5052744;28;20033;-65
2021/08/20 10:35:56;;;;;;;7.22;1.90;;;;;;;;;;5034947;28;20396;-65
2021/08/20 10:38:31;;;;;;;6.05;1.83;;;;;;;;;;5052615;28;20036;-65
2021/08/20 10:41:16;;;;;;;5.43;2.30;;;;;;;;;;5052516;28;20093;-65
2021/08/20 10:43:48;;;;;;;7.95;2.60;;;;;;;;;;5034740;28;20472;-65
2021/08/20 10:46:33;;;;;;;6.97;2.53;;;;;;;;;;5052922;28;20063;-69
2021/08/20 10:49:15;;;;;;;4.22;1.98;;;;;;;;;;5053121;28;20029;-67
2021/08/20 10:51:50;;;;;;;10.65;2.33;;;;;;;;;;5035249;28;20039;-73
2021/08/20 10:54:16;;;;;;;12.13;2.30;;;;;;;;;;5052814;28;20084;-72
2021/08/20 10:56:42;;;;;;;7.45;3.13;;;;;;;;;;5034948;28;20032;-73
2021/08/20 10:59:08;;;;;;;14.05;2.58;;;;;;;;;;5052787;28;20037;-72
2021/08/20 11:01:34;;;;;;;6.57;2.55;;;;;;;;;;5052940;28;20078;-73
2021/08/20 11:04:00;;;;;;;12.77;2.60;;;;;;;;;;5053529;28;20028;-78
2021/08/20 11:07:02;;;;;;;9.10;2.58;;;;;;;;;;5053195;28;20060;-78
2021/08/20 11:09:29;;;;;;;9.93;2.70;;;;;;;;;;4972498;28;20030;-77
2021/08/20 11:11:55;;;;;;;4.80;2.70;;;;;;;;;;5019686;28;20082;-77
2021/08/20 11:14:28;;;;;;;6.40;2.22;;;;;;;;;;5053199;28;20029;-78
2021/08/20 11:16:54;;;;;;;7.35;2.92;;;;;;;;;;5053291;28;20515;-78
2021/08/20 11:19:38;;;;;;;6.43;2.72;;;;;;;;;;5053135;28;20060;-78
2021/08/20 11:22:23;;;;;;;4.93;2.25;;;;;;;;;;5053056;28;20090;-77
2021/08/20 11:25:08;;;;;;;12.38;3.15;;;;;;;;;;5036043;28;20029;-78
2021/08/20 11:27:34;;;;;;;16.80;3.20;;;;;;;;;;5053729;28;20051;-77
2021/08/20 11:30:01;;;;;;;12.75;2.92;;;;;;;;;;5054356;28;20043;-78
2021/08/20 11:32:27;;;;;;;5.65;2.78;;;;;;;;;;5057087;28;20450;-77
2021/08/20 11:34:54;;;;;;;11.05;3.03;;;;;;;;;;5057294;28;20029;-78
2021/08/20 11:37:20;;;;;;;9.73;2.90;;;;;;;;;;5056804;28;20128;-75
2021/08/20 11:40:02;;;;;;;7.95;2.45;;;;;;;;;;5056200;28;20105;-75
2021/08/20 11:42:28;;;;;;;12.02;2.42;;;;;;;;;;5056203;28;20028;-75
2021/08/20 11:44:54;;;;;;;7.07;2.83;;;;;;;;;;5055991;28;20025;-75
2021/08/20 11:47:20;;;;;;;7.13;2.65;;;;;;;;;;5056639;28;20024;-76
2021/08/20 11:49:46;;;;;;;5.15;2.60;;;;;;;;;;5056370;28;20021;-77
2021/08/20 11:52:12;;;;;;;5.85;2.42;;;;;;;;;;5057591;28;20025;-78
2021/08/20 11:54:39;;;;;;;9.55;3.33;;;;;;;;;;5057622;28;20116;-78
2021/08/20 11:57:05;;;;;;;9.02;4.20;;;;;;;;;;5058443;28;20029;-78
2021/08/20 11:59:31;;;;;;;13.27;4.93;;;;;;;;;;5056866;28;20072;-77
2021/08/20 12:01:58;;;;;;;10.80;4.25;;;;;;;;;;5056393;28;20028;-76
2021/08/20 12:04:24;;;;;;;7.03;4.35;;;;;;;;;;5056236;28;20033;-77
2021/08/20 12:06:50;;;;;;;6.45;4.10;;;;;;;;;;5038188;28;20032;-77
2021/08/20 12:09:18;;;;;;;9.63;4.18;;;;;;;;;;5056583;28;20036;-78
2021/08/20 12:11:49;;;;;;;8.45;4.28;;;;;;;;;;5056458;28;20083;-77
2021/08/20 12:14:18;;;;;;;8.15;4.32;;;;;;;;;;5056401;28;20043;-76
2021/08/20 12:16:45;;;;;;;9.85;3.65;;;;;;;;;;5056429;28;20059;-75
2021/08/20 12:19:22;;;;;;;7.70;3.92;;;;;;;;;;5056811;28;20021;-78
2021/08/20 12:21:50;;;;;;;9.07;4.32;;;;;;;;;;5056569;28;20032;-78
2021/08/20 12:24:17;;;;;;;9.10;3.72;;;;;;;;;;5056186;28;20024;-78
2021/08/20 12:26:43;;;;;;;6.50;3.40;;;;;;;;;;5056165;28;20109;-69
2021/08/20 12:29:13;;;;;;;6.97;4.13;;;;;;;;;;5055480;28;20036;-72
2021/08/20 12:31:39;;;;;;;6.68;3.53;;;;;;;;;;5055175;28;20354;-72
2021/08/20 12:34:06;;;;;;;5.57;3.08;;;;;;;;;;5055589;28;20051;-73
2021/08/20 12:36:32;;;;;;;5.05;3.40;;;;;;;;;;5055026;28;20029;-72
2021/08/20 12:39:11;;;;;;;6.65;3.53;;;;;;;;;;5055020;28;20144;-71
2021/08/20 12:41:38;;;;;;;6.40;3.03;;;;;;;;;;5054624;28;20060;-72
2021/08/20 12:44:04;;;;;;;4.45;2.90;;;;;;;;;;5055587;28;20032;-68
2021/08/20 12:46:34;;;;;;;27.75;3.88;;;;;;;;;;5054862;28;20025;-69
2021/08/20 12:49:02;;;;;;;34.95;4.38;;;;;;;;;;5055018;28;20104;-71
2021/08/20 12:51:28;;;;;;;20.08;2.95;;;;;;;;;;5055078;28;20035;-71
2021/08/20 12:54:07;;;;;;;16.30;3.13;;;;;;;;;;5055033;28;20017;-70
2021/08/20 12:56:38;;;;;;;12.25;2.80;;;;;;;;;;5054583;28;20025;-71
2021/08/20 12:59:05;;;;;;;9.20;2.08;;;;;;;;;;5054590;28;20106;-71
2021/08/20 13:01:32;;;;;;;7.18;2.10;;;;;;;;;;5054729;28;20028;-70
2021/08/20 13:03:58;;;;;;;9.93;2.17;;;;;;;;;;5054576;28;20036;-70
2021/08/20 13:06:24;;;;;;;5.68;2.08;;;;;;;;;;5054548;28;20025;-70
2021/08/20 13:08:50;;;;;;;16.95;2.38;;;;;;;;;;5054457;28;20079;-68
2021/08/20 13:11:17;;;;;;;5.88;1.83;;;;;;;;;;5036613;28;20111;-67
2021/08/20 13:13:43;;;;;;;6.18;1.80;;;;;;;;;;5054475;28;20021;-69
2021/08/20 13:16:09;;;;;;;4.63;1.70;;;;;;;;;;5053956;28;20095;-68
2021/08/20 13:18:35;;;;;;;4.38;1.90;;;;;;;;;;5054621;28;20033;-69
2021/08/20 13:21:03;;;;;;;2.97;1.80;;;;;;;;;;5054438;28;20493;-69
2021/08/20 13:23:29;;;;;;;7.40;1.70;;;;;;;;;;5054343;28;20060;-69
2021/08/20 13:25:55;;;;;;;3.80;1.60;;;;;;;;;;5053944;28;20115;-68
2021/08/20 13:28:21;;;;;;;4.65;1.38;;;;;;;;;;5054072;28;20049;-68
2021/08/20 13:30:47;;;;;;;4.28;1.38;;;;;;;;;;5053935;28;20053;-69
2021/08/20 13:33:14;;;;;;;3.42;1.40;;;;;;;;;;5054105;28;20535;-68
2021/08/20 13:35:40;;;;;;;5.82;1.60;;;;;;;;;;5053796;28;20082;-69
2021/08/20 13:38:07;;;;;;;4.80;1.50;;;;;;;;;;5054156;28;20085;-67
2021/08/20 13:40:33;;;;;;;3.42;1.38;;;;;;;;;;5053797;28;20041;-69
2021/08/20 13:43:00;;;;;;;3.45;1.40;;;;;;;;;;5053790;28;20060;-68
2021/08/20 13:45:26;;;;;;;5.13;1.50;;;;;;;;;;5054135;28;20021;-68
2021/08/20 13:47:52;;;;;;;4.90;1.25;;;;;;;;;;5054067;28;20056;-69
2021/08/20 13:50:19;;;;;;;5.40;1.45;;;;;;;;;;5053702;28;20037;-69
2021/08/20 13:52:45;;;;;;;7.25;1.58;;;;;;;;;;5035985;28;20444;-70
2021/08/20 13:55:11;;;;;;;5.32;1.48;;;;;;;;;;5035246;28;20532;-68
2021/08/20 13:57:37;;;;;;;4.53;1.40;;;;;;;;;;5053410;28;20037;-69
2021/08/20 14:00:04;;;;;;;9.60;1.75;;;;;;;;;;5053737;28;20111;-69
2021/08/20 14:02:30;;;;;;;4.60;1.10;;;;;;;;;;5053438;28;20025;-70
2021/08/20 14:04:56;;;;;;;3.47;1.30;;;;;;;;;;5053420;28;20021;-70
2021/08/20 14:07:22;;;;;;;4.53;1.50;;;;;;;;;;5053426;28;20078;-69
2021/08/20 14:09:48;;;;;;;4.28;1.50;;;;;;;;;;5053315;28;20032;-70
2021/08/20 14:12:14;;;;;;;6.88;1.48;;;;;;;;;;5053154;28;20064;-70
2021/08/20 14:14:40;;;;;;;2.92;1.30;;;;;;;;;;5053211;28;20032;-71
2021/08/20 14:17:06;;;;;;;4.13;1.15;;;;;;;;;;5070439;28;20102;-70
2021/08/20 14:19:32;;;;;;;3.95;1.33;;;;;;;;;;5073127;28;20029;-70
2021/08/20 14:21:58;;;;;;;3.28;1.20;;;;;;;;;;5073390;28;20035;-69
2021/08/20 14:24:26;;;;;;;3.80;1.48;;;;;;;;;;5073290;28;20078;-71
2021/08/20 14:26:52;;;;;;;4.20;1.60;;;;;;;;;;5073422;28;20744;-75
2021/08/20 14:29:18;;;;;;;3.40;1.40;;;;;;;;;;5073589;28;20044;-75
2021/08/20 14:31:44;;;;;;;6.28;2.00;;;;;;;;;;5073640;28;20063;-74
2021/08/20 14:34:10;;;;;;;5.03;1.75;;;;;;;;;;5055467;28;20024;-75
2021/08/20 14:36:36;;;;;;;11.82;2.00;;;;;;;;;;5073358;28;20094;-75
2021/08/20 14:39:02;;;;;;;5.28;2.20;;;;;;;;;;5073739;28;20031;-74